sensor_id;sensor_type;location;lat;lon;timestamp;P1;durP1;ratioP1;P2;durP2;ratioP2
80910;SDS011;70359;51.420;7.032;2023-07-22T00:01:39;3.4;;;3;;
80910;SDS011;70359;51.420;7.032;2023-07-22T00:04:04;3.9;;;3.2;;
80910;SDS011;70359;51.420;7.032;2023-07-22T00:06:29;3.9;;;3.2;;
80910;SDS011;70359;51.420;7.032;2023-07-22T00:08:58;3.9;;;3.2;;
80910;SDS011;70359;51.420;7.032;2023-07-22T00:11:23;3.2;;;2.9;;
80910;SDS011;70359;51.420;7.032;2023-07-22T00:13:48;3.2;;;2.9;;
80910;SDS011;70359;51.420;7.032;2023-07-22T00:16:09;2.9;;;2.7;;
80910;SDS011;70359;51.420;7.032;2023-07-22T00:18:34;2.9;;;2.7;;
80910;SDS011;70359;51.420;7.032;2023-07-22T00:21:03;4.1;;;2.7;;
80910;SDS011;70359;51.420;7.032;2023-07-22T00:23:28;4.1;;;2.7;;
80910;SDS011;70359;51.420;7.032;2023-07-22T00:25:51;2.4;;;2.2;;
80910;SDS011;70359;51.420;7.032;2023-07-22T00:28:15;2.4;;;2.2;;
80910;SDS011;70359;51.420;7.032;2023-07-22T00:30:43;3.5;;;2.8;;
80910;SDS011;70359;51.420;7.032;2023-07-22T00:33:04;3.5;;;2.8;;
80910;SDS011;70359;51.420;7.032;2023-07-22T00:35:29;3.7;;;3.3;;
80910;SDS011;70359;51.420;7.032;2023-07-22T00:37:54;3.7;;;3.3;;
80910;SDS011;70359;51.420;7.032;2023-07-22T00:40:20;3;;;2.7;;
80910;SDS011;70359;51.420;7.032;2023-07-22T00:42:48;3;;;2.7;;
80910;SDS011;70359;51.420;7.032;2023-07-22T00:45:14;3;;;2.7;;
80910;SDS011;70359;51.420;7.032;2023-07-22T00:47:35;3;;;2.7;;
80910;SDS011;70359;51.420;7.032;2023-07-22T00:50:00;3;;;2.7;;
80910;SDS011;70359;51.420;7.032;2023-07-22T00:52:25;3;;;2.7;;
80910;SDS011;70359;51.420;7.032;2023-07-22T00:54:50;2.7;;;2.5;;
80910;SDS011;70359;51.420;7.032;2023-07-22T00:57:19;2.7;;;2.5;;
80910;SDS011;70359;51.420;7.032;2023-07-22T00:59:40;3.1;;;2.8;;
80910;SDS011;70359;51.420;7.032;2023-07-22T01:02:05;3.1;;;2.8;;
80910;SDS011;70359;51.420;7.032;2023-07-22T01:04:33;2.6;;;2.4;;
80910;SDS011;70359;51.420;7.032;2023-07-22T01:06:55;2.6;;;2.4;;
80910;SDS011;70359;51.420;7.032;2023-07-22T01:09:20;3.7;;;3;;
80910;SDS011;70359;51.420;7.032;2023-07-22T01:11:49;3.7;;;3;;
80910;SDS011;70359;51.420;7.032;2023-07-22T01:14:10;2.5;;;2.3;;
80910;SDS011;70359;51.420;7.032;2023-07-22T01:16:35;2.5;;;2.3;;
80910;SDS011;70359;51.420;7.032;2023-07-22T01:19:04;2.5;;;2.3;;
80910;SDS011;70359;51.420;7.032;2023-07-22T01:21:25;3.3;;;2.8;;
80910;SDS011;70359;51.420;7.032;2023-07-22T01:23:50;3.3;;;2.8;;
80910;SDS011;70359;51.420;7.032;2023-07-22T01:26:15;3.4;;;2.5;;
80910;SDS011;70359;51.420;7.032;2023-07-22T01:28:40;3.4;;;2.5;;
80910;SDS011;70359;51.420;7.032;2023-07-22T01:31:05;3.4;;;3.1;;
80910;SDS011;70359;51.420;7.032;2023-07-22T01:33:34;3.4;;;3.1;;
80910;SDS011;70359;51.420;7.032;2023-07-22T01:35:55;3.8;;;2.8;;
80910;SDS011;70359;51.420;7.032;2023-07-22T01:38:20;3.8;;;2.8;;
80910;SDS011;70359;51.420;7.032;2023-07-22T01:40:45;4.2;;;3.4;;
80910;SDS011;70359;51.420;7.032;2023-07-22T01:43:10;4.2;;;3.4;;
80910;SDS011;70359;51.420;7.032;2023-07-22T01:45:35;5.3;;;3.3;;
80910;SDS011;70359;51.420;7.032;2023-07-22T01:48:00;5.3;;;3.3;;
80910;SDS011;70359;51.420;7.032;2023-07-22T01:50:29;2.7;;;2.5;;
80910;SDS011;70359;51.420;7.032;2023-07-22T01:52:50;2.7;;;2.5;;
80910;SDS011;70359;51.420;7.032;2023-07-22T01:55:15;2.9;;;2.6;;
80910;SDS011;70359;51.420;7.032;2023-07-22T01:57:40;2.9;;;2.6;;
80910;SDS011;70359;51.420;7.032;2023-07-22T02:00:05;4.8;;;3.4;;
80910;SDS011;70359;51.420;7.032;2023-07-22T02:02:34;4.8;;;3.4;;
80910;SDS011;70359;51.420;7.032;2023-07-22T02:04:55;3.2;;;2.9;;
80910;SDS011;70359;51.420;7.032;2023-07-22T02:07:24;3.2;;;2.9;;
80910;SDS011;70359;51.420;7.032;2023-07-22T02:09:45;3.3;;;2.8;;
80910;SDS011;70359;51.420;7.032;2023-07-22T02:12:10;3.3;;;2.8;;
80910;SDS011;70359;51.420;7.032;2023-07-22T02:14:35;3.1;;;2.8;;
80910;SDS011;70359;51.420;7.032;2023-07-22T02:17:00;3.1;;;2.8;;
80910;SDS011;70359;51.420;7.032;2023-07-22T02:19:25;2.5;;;2.3;;
80910;SDS011;70359;51.420;7.032;2023-07-22T02:21:50;2.5;;;2.3;;
80910;SDS011;70359;51.420;7.032;2023-07-22T02:24:15;3.6;;;3.3;;
80910;SDS011;70359;51.420;7.032;2023-07-22T02:26:40;3.6;;;3.3;;
80910;SDS011;70359;51.420;7.032;2023-07-22T02:29:05;3.6;;;3.3;;
80910;SDS011;70359;51.420;7.032;2023-07-22T02:31:30;2.6;;;2.4;;
80910;SDS011;70359;51.420;7.032;2023-07-22T02:33:55;2.6;;;2.4;;
80910;SDS011;70359;51.420;7.032;2023-07-22T02:36:20;3.2;;;2.8;;
80910;SDS011;70359;51.420;7.032;2023-07-22T02:38:45;3.2;;;2.8;;
80910;SDS011;70359;51.420;7.032;2023-07-22T02:41:10;2.9;;;2.7;;
80910;SDS011;70359;51.420;7.032;2023-07-22T02:43:35;2.9;;;2.7;;
80910;SDS011;70359;51.420;7.032;2023-07-22T02:46:05;3.2;;;2.9;;
80910;SDS011;70359;51.420;7.032;2023-07-22T02:48:25;3.2;;;2.9;;
80910;SDS011;70359;51.420;7.032;2023-07-22T02:50:50;3.5;;;2.9;;
80910;SDS011;70359;51.420;7.032;2023-07-22T02:53:15;3.5;;;2.9;;
80910;SDS011;70359;51.420;7.032;2023-07-22T02:55:40;3.2;;;2.7;;
80910;SDS011;70359;51.420;7.032;2023-07-22T02:58:09;3.2;;;2.7;;
80910;SDS011;70359;51.420;7.032;2023-07-22T03:00:30;3;;;2.7;;
80910;SDS011;70359;51.420;7.032;2023-07-22T03:02:56;3;;;2.7;;
80910;SDS011;70359;51.420;7.032;2023-07-22T03:05:20;2.8;;;2.6;;
80910;SDS011;70359;51.420;7.032;2023-07-22T03:07:45;2.8;;;2.6;;
80910;SDS011;70359;51.420;7.032;2023-07-22T03:10:10;3.1;;;2.6;;
80910;SDS011;70359;51.420;7.032;2023-07-22T03:12:35;3.1;;;2.6;;
80910;SDS011;70359;51.420;7.032;2023-07-22T03:15:00;3.1;;;2.8;;
80910;SDS011;70359;51.420;7.032;2023-07-22T03:17:25;3.1;;;2.8;;
80910;SDS011;70359;51.420;7.032;2023-07-22T03:19:50;3.4;;;3.1;;
80910;SDS011;70359;51.420;7.032;2023-07-22T03:22:15;3.4;;;3.1;;
80910;SDS011;70359;51.420;7.032;2023-07-22T03:24:44;2.8;;;2.5;;
80910;SDS011;70359;51.420;7.032;2023-07-22T03:27:05;2.8;;;2.5;;
80910;SDS011;70359;51.420;7.032;2023-07-22T03:29:30;3.1;;;2.7;;
80910;SDS011;70359;51.420;7.032;2023-07-22T03:31:55;3.1;;;2.7;;
80910;SDS011;70359;51.420;7.032;2023-07-22T03:34:20;3.3;;;3;;
80910;SDS011;70359;51.420;7.032;2023-07-22T03:36:45;3.3;;;3;;
80910;SDS011;70359;51.420;7.032;2023-07-22T03:39:12;2.3;;;2.1;;
80910;SDS011;70359;51.420;7.032;2023-07-22T03:41:39;2.3;;;2.1;;
80910;SDS011;70359;51.420;7.032;2023-07-22T03:44:00;2.3;;;2.1;;
80910;SDS011;70359;51.420;7.032;2023-07-22T03:46:25;2.4;;;2.2;;
80910;SDS011;70359;51.420;7.032;2023-07-22T03:48:50;2.4;;;2.2;;
80910;SDS011;70359;51.420;7.032;2023-07-22T03:51:15;3.8;;;3.3;;
80910;SDS011;70359;51.420;7.032;2023-07-22T03:53:40;3.8;;;3.3;;
80910;SDS011;70359;51.420;7.032;2023-07-22T03:56:05;3;;;2.7;;
80910;SDS011;70359;51.420;7.032;2023-07-22T03:58:30;3;;;2.7;;
80910;SDS011;70359;51.420;7.032;2023-07-22T04:00:59;3.1;;;2.8;;
80910;SDS011;70359;51.420;7.032;2023-07-22T04:03:20;3.1;;;2.8;;
80910;SDS011;70359;51.420;7.032;2023-07-22T04:05:52;3.4;;;3.1;;
80910;SDS011;70359;51.420;7.032;2023-07-22T04:08:10;3.4;;;3.1;;
80910;SDS011;70359;51.420;7.032;2023-07-22T04:10:35;2.6;;;2.4;;
80910;SDS011;70359;51.420;7.032;2023-07-22T04:13:00;2.6;;;2.4;;
80910;SDS011;70359;51.420;7.032;2023-07-22T04:15:25;2.7;;;2.3;;
80910;SDS011;70359;51.420;7.032;2023-07-22T04:17:50;2.7;;;2.3;;
80910;SDS011;70359;51.420;7.032;2023-07-22T04:20:19;3.5;;;2.5;;
80910;SDS011;70359;51.420;7.032;2023-07-22T04:22:45;3.5;;;2.5;;
80910;SDS011;70359;51.420;7.032;2023-07-22T04:25:06;2.4;;;2.2;;
80910;SDS011;70359;51.420;7.032;2023-07-22T04:27:34;2.4;;;2.2;;
80910;SDS011;70359;51.420;7.032;2023-07-22T04:29:55;4.2;;;3;;
80910;SDS011;70359;51.420;7.032;2023-07-22T04:32:20;4.2;;;3;;
80910;SDS011;70359;51.420;7.032;2023-07-22T04:34:49;3.8;;;2.8;;
80910;SDS011;70359;51.420;7.032;2023-07-22T04:37:10;3.8;;;2.8;;
80910;SDS011;70359;51.420;7.032;2023-07-22T04:39:36;2.9;;;2.5;;
80910;SDS011;70359;51.420;7.032;2023-07-22T04:42:04;2.9;;;2.5;;
80910;SDS011;70359;51.420;7.032;2023-07-22T04:44:25;3.9;;;2.6;;
80910;SDS011;70359;51.420;7.032;2023-07-22T04:46:54;3.9;;;2.6;;
80910;SDS011;70359;51.420;7.032;2023-07-22T04:49:17;3;;;2.5;;
80910;SDS011;70359;51.420;7.032;2023-07-22T04:51:40;3;;;2.5;;
80910;SDS011;70359;51.420;7.032;2023-07-22T04:54:05;3;;;2.5;;
80910;SDS011;70359;51.420;7.032;2023-07-22T04:56:30;2.9;;;2.7;;
80910;SDS011;70359;51.420;7.032;2023-07-22T04:58:55;2.9;;;2.7;;
80910;SDS011;70359;51.420;7.032;2023-07-22T05:01:20;3;;;2.5;;
80910;SDS011;70359;51.420;7.032;2023-07-22T05:03:49;3;;;2.5;;
80910;SDS011;70359;51.420;7.032;2023-07-22T05:06:10;3.9;;;2.6;;
80910;SDS011;70359;51.420;7.032;2023-07-22T05:08:35;3.9;;;2.6;;
80910;SDS011;70359;51.420;7.032;2023-07-22T05:11:00;3.8;;;2.5;;
80910;SDS011;70359;51.420;7.032;2023-07-22T05:13:25;3.8;;;2.5;;
80910;SDS011;70359;51.420;7.032;2023-07-22T05:15:50;2.5;;;2.3;;
80910;SDS011;70359;51.420;7.032;2023-07-22T05:18:15;2.5;;;2.3;;
80910;SDS011;70359;51.420;7.032;2023-07-22T05:20:41;3.3;;;2.8;;
80910;SDS011;70359;51.420;7.032;2023-07-22T05:23:05;3.3;;;2.8;;
80910;SDS011;70359;51.420;7.032;2023-07-22T05:25:30;2.6;;;2.4;;
80910;SDS011;70359;51.420;7.032;2023-07-22T05:27:55;2.6;;;2.4;;
80910;SDS011;70359;51.420;7.032;2023-07-22T05:30:24;4.5;;;3.1;;
80910;SDS011;70359;51.420;7.032;2023-07-22T05:32:45;4.5;;;3.1;;
80910;SDS011;70359;51.420;7.032;2023-07-22T05:35:14;2.7;;;2.5;;
80910;SDS011;70359;51.420;7.032;2023-07-22T05:37:35;2.7;;;2.5;;
80910;SDS011;70359;51.420;7.032;2023-07-22T05:40:00;3.3;;;2.5;;
80910;SDS011;70359;51.420;7.032;2023-07-22T05:42:25;3.3;;;2.5;;
80910;SDS011;70359;51.420;7.032;2023-07-22T05:44:50;4;;;2.8;;
80910;SDS011;70359;51.420;7.032;2023-07-22T05:47:15;4;;;2.8;;
80910;SDS011;70359;51.420;7.032;2023-07-22T05:49:40;2.4;;;2.2;;
80910;SDS011;70359;51.420;7.032;2023-07-22T05:52:06;2.4;;;2.2;;
80910;SDS011;70359;51.420;7.032;2023-07-22T05:54:30;4.3;;;3;;
80910;SDS011;70359;51.420;7.032;2023-07-22T05:56:55;4.3;;;3;;
80910;SDS011;70359;51.420;7.032;2023-07-22T05:59:26;2.9;;;2.5;;
80910;SDS011;70359;51.420;7.032;2023-07-22T06:01:45;2.9;;;2.5;;
80910;SDS011;70359;51.420;7.032;2023-07-22T06:04:14;2.9;;;2.5;;
80910;SDS011;70359;51.420;7.032;2023-07-22T06:06:35;3.3;;;2.7;;
80910;SDS011;70359;51.420;7.032;2023-07-22T06:09:00;3.3;;;2.7;;
80910;SDS011;70359;51.420;7.032;2023-07-22T06:11:25;2.6;;;2.4;;
80910;SDS011;70359;51.420;7.032;2023-07-22T06:13:50;2.6;;;2.4;;
80910;SDS011;70359;51.420;7.032;2023-07-22T06:16:15;3.4;;;3.1;;
80910;SDS011;70359;51.420;7.032;2023-07-22T06:18:40;3.4;;;3.1;;
80910;SDS011;70359;51.420;7.032;2023-07-22T06:21:05;4.8;;;3.7;;
80910;SDS011;70359;51.420;7.032;2023-07-22T06:23:30;4.8;;;3.7;;
80910;SDS011;70359;51.420;7.032;2023-07-22T06:25:55;2.6;;;2.4;;
80910;SDS011;70359;51.420;7.032;2023-07-22T06:28:20;2.6;;;2.4;;
80910;SDS011;70359;51.420;7.032;2023-07-22T06:30:45;2.4;;;2.2;;
80910;SDS011;70359;51.420;7.032;2023-07-22T06:33:10;2.4;;;2.2;;
80910;SDS011;70359;51.420;7.032;2023-07-22T06:35:35;3.2;;;2.8;;
80910;SDS011;70359;51.420;7.032;2023-07-22T06:38:00;3.2;;;2.8;;
80910;SDS011;70359;51.420;7.032;2023-07-22T06:40:25;5.8;;;3.2;;
80910;SDS011;70359;51.420;7.032;2023-07-22T06:42:50;5.8;;;3.2;;
80910;SDS011;70359;51.420;7.032;2023-07-22T06:45:19;3.5;;;2.8;;
80910;SDS011;70359;51.420;7.032;2023-07-22T06:47:40;3.5;;;2.8;;
80910;SDS011;70359;51.420;7.032;2023-07-22T06:50:06;3.8;;;2.6;;
80910;SDS011;70359;51.420;7.032;2023-07-22T06:52:34;3.8;;;2.6;;
80910;SDS011;70359;51.420;7.032;2023-07-22T06:54:55;2.9;;;2.6;;
80910;SDS011;70359;51.420;7.032;2023-07-22T06:57:20;2.9;;;2.6;;
80910;SDS011;70359;51.420;7.032;2023-07-22T06:59:45;4.2;;;2.8;;
80910;SDS011;70359;51.420;7.032;2023-07-22T07:02:10;4.2;;;2.8;;
80910;SDS011;70359;51.420;7.032;2023-07-22T07:04:39;3.8;;;2.8;;
80910;SDS011;70359;51.420;7.032;2023-07-22T07:07:00;3.8;;;2.8;;
80910;SDS011;70359;51.420;7.032;2023-07-22T07:09:25;2.9;;;2.6;;
80910;SDS011;70359;51.420;7.032;2023-07-22T07:11:50;2.9;;;2.6;;
80910;SDS011;70359;51.420;7.032;2023-07-22T07:14:19;2.9;;;2.6;;
80910;SDS011;70359;51.420;7.032;2023-07-22T07:16:40;3.6;;;3.3;;
80910;SDS011;70359;51.420;7.032;2023-07-22T07:19:05;3.6;;;3.3;;
80910;SDS011;70359;51.420;7.032;2023-07-22T07:21:34;2.9;;;2.6;;
80910;SDS011;70359;51.420;7.032;2023-07-22T07:23:55;2.9;;;2.6;;
80910;SDS011;70359;51.420;7.032;2023-07-22T07:26:21;3.6;;;2.8;;
80910;SDS011;70359;51.420;7.032;2023-07-22T07:28:46;3.6;;;2.8;;
80910;SDS011;70359;51.420;7.032;2023-07-22T07:31:10;3.3;;;3;;
80910;SDS011;70359;51.420;7.032;2023-07-22T07:33:36;3.3;;;3;;
80910;SDS011;70359;51.420;7.032;2023-07-22T07:36:01;2.7;;;2.5;;
80910;SDS011;70359;51.420;7.032;2023-07-22T07:38:29;2.7;;;2.5;;
80910;SDS011;70359;51.420;7.032;2023-07-22T07:40:52;3.2;;;2.9;;
80910;SDS011;70359;51.420;7.032;2023-07-22T07:43:15;3.2;;;2.9;;
80910;SDS011;70359;51.420;7.032;2023-07-22T07:45:41;4.3;;;3.3;;
80910;SDS011;70359;51.420;7.032;2023-07-22T07:48:06;4.3;;;3.3;;
80910;SDS011;70359;51.420;7.032;2023-07-22T07:50:31;6.8;;;3;;
80910;SDS011;70359;51.420;7.032;2023-07-22T07:52:59;6.8;;;3;;
80910;SDS011;70359;51.420;7.032;2023-07-22T07:55:20;5.9;;;3;;
80910;SDS011;70359;51.420;7.032;2023-07-22T07:57:45;5.9;;;3;;
80910;SDS011;70359;51.420;7.032;2023-07-22T08:00:11;3.5;;;3.2;;
80910;SDS011;70359;51.420;7.032;2023-07-22T08:02:36;3.5;;;3.2;;
80910;SDS011;70359;51.420;7.032;2023-07-22T08:05:00;6.3;;;3.9;;
80910;SDS011;70359;51.420;7.032;2023-07-22T08:07:26;6.3;;;3.9;;
80910;SDS011;70359;51.420;7.032;2023-07-22T08:09:54;3.4;;;3.1;;
80910;SDS011;70359;51.420;7.032;2023-07-22T08:12:16;3.4;;;3.1;;
80910;SDS011;70359;51.420;7.032;2023-07-22T08:14:44;2.6;;;2.4;;
80910;SDS011;70359;51.420;7.032;2023-07-22T08:17:06;2.6;;;2.4;;
80910;SDS011;70359;51.420;7.032;2023-07-22T08:19:31;5.1;;;3.2;;
80910;SDS011;70359;51.420;7.032;2023-07-22T08:21:56;5.1;;;3.2;;
80910;SDS011;70359;51.420;7.032;2023-07-22T08:24:21;5.1;;;3.2;;
80910;SDS011;70359;51.420;7.032;2023-07-22T08:26:46;3.1;;;2.5;;
80910;SDS011;70359;51.420;7.032;2023-07-22T08:29:11;3.1;;;2.5;;
80910;SDS011;70359;51.420;7.032;2023-07-22T08:31:36;3.3;;;3;;
80910;SDS011;70359;51.420;7.032;2023-07-22T08:34:01;3.3;;;3;;
80910;SDS011;70359;51.420;7.032;2023-07-22T08:36:30;4;;;2.8;;
80910;SDS011;70359;51.420;7.032;2023-07-22T08:38:51;4;;;2.8;;
80910;SDS011;70359;51.420;7.032;2023-07-22T08:41:17;2.4;;;2.2;;
80910;SDS011;70359;51.420;7.032;2023-07-22T08:43:41;2.4;;;2.2;;
80910;SDS011;70359;51.420;7.032;2023-07-22T08:46:06;2.4;;;2.2;;
80910;SDS011;70359;51.420;7.032;2023-07-22T08:48:31;2.4;;;2.2;;
80910;SDS011;70359;51.420;7.032;2023-07-22T08:50:59;2.9;;;2.6;;
80910;SDS011;70359;51.420;7.032;2023-07-22T08:53:21;2.9;;;2.6;;
80910;SDS011;70359;51.420;7.032;2023-07-22T08:55:46;2.6;;;2.4;;
80910;SDS011;70359;51.420;7.032;2023-07-22T08:58:11;2.6;;;2.4;;
80910;SDS011;70359;51.420;7.032;2023-07-22T09:00:36;2.9;;;2.6;;
80910;SDS011;70359;51.420;7.032;2023-07-22T09:03:01;2.9;;;2.6;;
80910;SDS011;70359;51.420;7.032;2023-07-22T09:05:30;5.4;;;2.6;;
80910;SDS011;70359;51.420;7.032;2023-07-22T09:07:51;5.4;;;2.6;;
80910;SDS011;70359;51.420;7.032;2023-07-22T09:10:16;3.6;;;2.3;;
80910;SDS011;70359;51.420;7.032;2023-07-22T09:12:41;3.6;;;2.3;;
80910;SDS011;70359;51.420;7.032;2023-07-22T09:15:07;3.1;;;2.4;;
80910;SDS011;70359;51.420;7.032;2023-07-22T09:17:35;3.1;;;2.4;;
80910;SDS011;70359;51.420;7.032;2023-07-22T09:19:56;2.6;;;2.4;;
80910;SDS011;70359;51.420;7.032;2023-07-22T09:22:24;2.6;;;2.4;;
80910;SDS011;70359;51.420;7.032;2023-07-22T09:24:46;2.6;;;2.4;;
80910;SDS011;70359;51.420;7.032;2023-07-22T09:27:11;2.6;;;2.4;;
80910;SDS011;70359;51.420;7.032;2023-07-22T09:29:39;2.4;;;2.2;;
80910;SDS011;70359;51.420;7.032;2023-07-22T09:32:01;2.4;;;2.2;;
80910;SDS011;70359;51.420;7.032;2023-07-22T09:34:30;2.4;;;2.2;;
80910;SDS011;70359;51.420;7.032;2023-07-22T09:36:55;3.1;;;2.8;;
80910;SDS011;70359;51.420;7.032;2023-07-22T09:39:16;3.1;;;2.8;;
80910;SDS011;70359;51.420;7.032;2023-07-22T09:41:49;1.9;;;1.7;;
80910;SDS011;70359;51.420;7.032;2023-07-22T09:44:09;1.9;;;1.7;;
80910;SDS011;70359;51.420;7.032;2023-07-22T09:46:34;2.3;;;1.9;;
80910;SDS011;70359;51.420;7.032;2023-07-22T09:48:56;2.3;;;1.9;;
80910;SDS011;70359;51.420;7.032;2023-07-22T09:51:21;2.2;;;2;;
80910;SDS011;70359;51.420;7.032;2023-07-22T09:53:59;2.2;;;2;;
80910;SDS011;70359;51.420;7.032;2023-07-22T09:56:11;2.8;;;2.1;;
80910;SDS011;70359;51.420;7.032;2023-07-22T09:58:40;2.8;;;2.1;;
80910;SDS011;70359;51.420;7.032;2023-07-22T10:01:05;3.4;;;2.4;;
80910;SDS011;70359;51.420;7.032;2023-07-22T10:03:29;3.4;;;2.4;;
80910;SDS011;70359;51.420;7.032;2023-07-22T10:05:51;2;;;1.8;;
80910;SDS011;70359;51.420;7.032;2023-07-22T10:08:18;2;;;1.8;;
80910;SDS011;70359;51.420;7.032;2023-07-22T10:10:42;2.8;;;1.9;;
80910;SDS011;70359;51.420;7.032;2023-07-22T10:13:06;2.8;;;1.9;;
80910;SDS011;70359;51.420;7.032;2023-07-22T10:15:33;1.7;;;1.6;;
80910;SDS011;70359;51.420;7.032;2023-07-22T10:17:56;1.7;;;1.6;;
80910;SDS011;70359;51.420;7.032;2023-07-22T10:20:22;1.7;;;1.6;;
80910;SDS011;70359;51.420;7.032;2023-07-22T10:22:46;1.7;;;1.6;;
80910;SDS011;70359;51.420;7.032;2023-07-22T10:25:12;2.2;;;2;;
80910;SDS011;70359;51.420;7.032;2023-07-22T10:27:36;2.2;;;2;;
80910;SDS011;70359;51.420;7.032;2023-07-22T10:30:01;1.8;;;1.7;;
80910;SDS011;70359;51.420;7.032;2023-07-22T10:32:30;1.8;;;1.7;;
80910;SDS011;70359;51.420;7.032;2023-07-22T10:34:51;1.5;;;1.4;;
80910;SDS011;70359;51.420;7.032;2023-07-22T10:37:17;1.5;;;1.4;;
80910;SDS011;70359;51.420;7.032;2023-07-22T10:39:41;1.5;;;1.4;;
80910;SDS011;70359;51.420;7.032;2023-07-22T10:42:06;1.8;;;1.7;;
80910;SDS011;70359;51.420;7.032;2023-07-22T10:44:31;1.8;;;1.7;;
80910;SDS011;70359;51.420;7.032;2023-07-22T10:47:00;1.7;;;1.6;;
80910;SDS011;70359;51.420;7.032;2023-07-22T10:49:21;1.7;;;1.6;;
80910;SDS011;70359;51.420;7.032;2023-07-22T10:51:51;1.5;;;1.4;;
80910;SDS011;70359;51.420;7.032;2023-07-22T10:54:15;1.5;;;1.4;;
80910;SDS011;70359;51.420;7.032;2023-07-22T10:56:40;2.5;;;2.1;;
80910;SDS011;70359;51.420;7.032;2023-07-22T10:59:01;2.5;;;2.1;;
80910;SDS011;70359;51.420;7.032;2023-07-22T11:01:32;1.7;;;1.5;;
80910;SDS011;70359;51.420;7.032;2023-07-22T11:06:07;1.5;;;1.4;;
80910;SDS011;70359;51.420;7.032;2023-07-22T11:08:40;1.5;;;1.4;;
80910;SDS011;70359;51.420;7.032;2023-07-22T11:10:59;1.3;;;1.2;;
80910;SDS011;70359;51.420;7.032;2023-07-22T11:13:26;1.3;;;1.2;;
80910;SDS011;70359;51.420;7.032;2023-07-22T11:15:50;1.3;;;1.2;;
80910;SDS011;70359;51.420;7.032;2023-07-22T11:18:15;1.3;;;1.2;;
80910;SDS011;70359;51.420;7.032;2023-07-22T11:20:40;1.3;;;1.2;;
80910;SDS011;70359;51.420;7.032;2023-07-22T11:23:01;1.3;;;1.2;;
80910;SDS011;70359;51.420;7.032;2023-07-22T11:25:26;1.1;;;1;;
80910;SDS011;70359;51.420;7.032;2023-07-22T11:27:51;1.1;;;1;;
80910;SDS011;70359;51.420;7.032;2023-07-22T11:30:20;1.3;;;1.2;;
80910;SDS011;70359;51.420;7.032;2023-07-22T11:32:42;1.3;;;1.2;;
80910;SDS011;70359;51.420;7.032;2023-07-22T11:35:12;1.1;;;1.1;;
80910;SDS011;70359;51.420;7.032;2023-07-22T11:37:35;1.1;;;1.1;;
80910;SDS011;70359;51.420;7.032;2023-07-22T11:39:59;0.9;;;0.9;;
80910;SDS011;70359;51.420;7.032;2023-07-22T11:42:21;0.9;;;0.9;;
80910;SDS011;70359;51.420;7.032;2023-07-22T11:44:50;0.9;;;0.9;;
80910;SDS011;70359;51.420;7.032;2023-07-22T11:47:11;1.1;;;1;;
80910;SDS011;70359;51.420;7.032;2023-07-22T11:49:37;1.1;;;1;;
80910;SDS011;70359;51.420;7.032;2023-07-22T11:52:03;1.6;;;1.4;;
80910;SDS011;70359;51.420;7.032;2023-07-22T11:54:27;1.6;;;1.4;;
80910;SDS011;70359;51.420;7.032;2023-07-22T11:56:51;1.2;;;1.1;;
80910;SDS011;70359;51.420;7.032;2023-07-22T11:59:16;1.2;;;1.1;;
80910;SDS011;70359;51.420;7.032;2023-07-22T12:01:42;1.1;;;1;;
80910;SDS011;70359;51.420;7.032;2023-07-22T12:04:09;1.1;;;1;;
80910;SDS011;70359;51.420;7.032;2023-07-22T12:06:31;1;;;0.9;;
80910;SDS011;70359;51.420;7.032;2023-07-22T12:08:56;1;;;0.9;;
80910;SDS011;70359;51.420;7.032;2023-07-22T12:11:22;1.6;;;1.4;;
80910;SDS011;70359;51.420;7.032;2023-07-22T12:13:47;1.6;;;1.4;;
80910;SDS011;70359;51.420;7.032;2023-07-22T12:16:12;1.7;;;1.3;;
80910;SDS011;70359;51.420;7.032;2023-07-22T12:18:46;1.7;;;1.3;;
80910;SDS011;70359;51.420;7.032;2023-07-22T12:21:03;1.7;;;1.6;;
80910;SDS011;70359;51.420;7.032;2023-07-22T12:23:26;1.7;;;1.6;;
80910;SDS011;70359;51.420;7.032;2023-07-22T12:25:51;1.5;;;1.3;;
80910;SDS011;70359;51.420;7.032;2023-07-22T12:28:16;1.5;;;1.3;;
80910;SDS011;70359;51.420;7.032;2023-07-22T12:30:41;1.1;;;1;;
80910;SDS011;70359;51.420;7.032;2023-07-22T12:33:06;1.1;;;1;;
80910;SDS011;70359;51.420;7.032;2023-07-22T12:35:31;1.2;;;0.9;;
80910;SDS011;70359;51.420;7.032;2023-07-22T12:37:56;1.2;;;0.9;;
80910;SDS011;70359;51.420;7.032;2023-07-22T12:40:25;1.1;;;1;;
80910;SDS011;70359;51.420;7.032;2023-07-22T12:42:46;1.1;;;1;;
80910;SDS011;70359;51.420;7.032;2023-07-22T12:45:12;1.1;;;1;;
80910;SDS011;70359;51.420;7.032;2023-07-22T12:47:36;1.1;;;1;;
80910;SDS011;70359;51.420;7.032;2023-07-22T12:50:02;1.2;;;1.1;;
80910;SDS011;70359;51.420;7.032;2023-07-22T12:52:26;1.2;;;1.1;;
80910;SDS011;70359;51.420;7.032;2023-07-22T12:54:51;1.2;;;1.1;;
80910;SDS011;70359;51.420;7.032;2023-07-22T12:57:20;1.6;;;1.4;;
80910;SDS011;70359;51.420;7.032;2023-07-22T12:59:41;1.6;;;1.4;;
80910;SDS011;70359;51.420;7.032;2023-07-22T13:02:07;1.7;;;1.5;;
80910;SDS011;70359;51.420;7.032;2023-07-22T13:04:31;1.7;;;1.5;;
80910;SDS011;70359;51.420;7.032;2023-07-22T13:07:00;1.1;;;1;;
80910;SDS011;70359;51.420;7.032;2023-07-22T13:09:21;1.1;;;1;;
80910;SDS011;70359;51.420;7.032;2023-07-22T13:11:46;2.7;;;1.5;;
80910;SDS011;70359;51.420;7.032;2023-07-22T13:14:12;2.7;;;1.5;;
80910;SDS011;70359;51.420;7.032;2023-07-22T13:16:36;1.3;;;1.1;;
80910;SDS011;70359;51.420;7.032;2023-07-22T13:19:01;1.3;;;1.1;;
80910;SDS011;70359;51.420;7.032;2023-07-22T13:21:27;1.3;;;1.2;;
80910;SDS011;70359;51.420;7.032;2023-07-22T13:23:51;1.3;;;1.2;;
80910;SDS011;70359;51.420;7.032;2023-07-22T13:26:16;1.4;;;1.3;;
80910;SDS011;70359;51.420;7.032;2023-07-22T13:28:41;1.4;;;1.3;;
80910;SDS011;70359;51.420;7.032;2023-07-22T13:31:06;1.5;;;1.4;;
80910;SDS011;70359;51.420;7.032;2023-07-22T13:33:31;1.5;;;1.4;;
80910;SDS011;70359;51.420;7.032;2023-07-22T13:35:56;1.1;;;1;;
80910;SDS011;70359;51.420;7.032;2023-07-22T13:38:22;1.1;;;1;;
80910;SDS011;70359;51.420;7.032;2023-07-22T13:40:46;1.2;;;1.1;;
80910;SDS011;70359;51.420;7.032;2023-07-22T13:43:12;1.2;;;1.1;;
80910;SDS011;70359;51.420;7.032;2023-07-22T13:45:37;1.5;;;1.2;;
80910;SDS011;70359;51.420;7.032;2023-07-22T13:48:02;1.5;;;1.2;;
80910;SDS011;70359;51.420;7.032;2023-07-22T13:50:27;1.2;;;1.1;;
80910;SDS011;70359;51.420;7.032;2023-07-22T13:52:52;1.2;;;1.1;;
80910;SDS011;70359;51.420;7.032;2023-07-22T13:55:17;1.2;;;1.1;;
80910;SDS011;70359;51.420;7.032;2023-07-22T13:57:46;1.2;;;1.1;;
80910;SDS011;70359;51.420;7.032;2023-07-22T14:00:07;1.1;;;1;;
80910;SDS011;70359;51.420;7.032;2023-07-22T14:02:32;1.1;;;1;;
80910;SDS011;70359;51.420;7.032;2023-07-22T14:04:57;1.1;;;1;;
80910;SDS011;70359;51.420;7.032;2023-07-22T14:07:22;1.2;;;1.1;;
80910;SDS011;70359;51.420;7.032;2023-07-22T14:09:51;1.2;;;1.1;;
80910;SDS011;70359;51.420;7.032;2023-07-22T14:12:12;1.5;;;1.3;;
80910;SDS011;70359;51.420;7.032;2023-07-22T14:14:41;1.5;;;1.3;;
80910;SDS011;70359;51.420;7.032;2023-07-22T14:17:02;1.5;;;1.4;;
80910;SDS011;70359;51.420;7.032;2023-07-22T14:19:27;1.5;;;1.4;;
80910;SDS011;70359;51.420;7.032;2023-07-22T14:21:52;0.9;;;0.9;;
80910;SDS011;70359;51.420;7.032;2023-07-22T14:24:17;0.9;;;0.9;;
80910;SDS011;70359;51.420;7.032;2023-07-22T14:26:42;1.1;;;1;;
80910;SDS011;70359;51.420;7.032;2023-07-22T14:29:07;1.1;;;1;;
80910;SDS011;70359;51.420;7.032;2023-07-22T14:31:32;1.2;;;1.1;;
80910;SDS011;70359;51.420;7.032;2023-07-22T14:33:57;1.2;;;1.1;;
80910;SDS011;70359;51.420;7.032;2023-07-22T14:36:22;1.2;;;1.1;;
80910;SDS011;70359;51.420;7.032;2023-07-22T14:38:47;1.2;;;1.1;;
80910;SDS011;70359;51.420;7.032;2023-07-22T14:41:12;1.3;;;1.2;;
80910;SDS011;70359;51.420;7.032;2023-07-22T14:43:37;1.3;;;1.2;;
80910;SDS011;70359;51.420;7.032;2023-07-22T14:46:02;1.6;;;1.4;;
80910;SDS011;70359;51.420;7.032;2023-07-22T14:48:27;1.6;;;1.4;;
80910;SDS011;70359;51.420;7.032;2023-07-22T14:50:52;1.7;;;1.5;;
80910;SDS011;70359;51.420;7.032;2023-07-22T14:53:17;1.7;;;1.5;;
80910;SDS011;70359;51.420;7.032;2023-07-22T14:55:42;2.6;;;1.4;;
80910;SDS011;70359;51.420;7.032;2023-07-22T14:58:07;2.6;;;1.4;;
80910;SDS011;70359;51.420;7.032;2023-07-22T15:00:32;3;;;1.7;;
80910;SDS011;70359;51.420;7.032;2023-07-22T15:02:57;3;;;1.7;;
80910;SDS011;70359;51.420;7.032;2023-07-22T15:05:22;1.4;;;1.3;;
80910;SDS011;70359;51.420;7.032;2023-07-22T15:07:47;1.4;;;1.3;;